Aviation Digital Data Service (ADDS)

Output produced by TAFs form (0924 UTC 25 October 2014)
found at http://aviationweather.gov/adds/tafs/
 
KFMN 250532Z 2506/2606 05005KT P6SM SKC 
     FM250800 09007KT P6SM SKC 
     FM252000 26007KT P6SM SKC 
     FM260200 VRB05KT P6SM FEW150